Time;durP1;ratioP1;P1;durP2;ratioP2;P2;SDS_P1;SDS_P2;PMS_P1;PMS_P2;Temp;Humidity;BMP_temperature;BMP_pressure;BME280_temperature;BME280_humidity;BME280_pressure;Samples;Min_cycle;Max_cycle;Signal;HPM_P1;HPM_P2
2022/08/07 00:00:44;;;;;;;2.47;1.10;;;14.90;99.90;;;;;;4975146;28;20572;-71
2022/08/07 00:03:10;;;;;;;1.63;1.10;;;14.90;99.90;;;;;;5007536;28;20034;-69
2022/08/07 00:05:36;;;;;;;2.00;1.13;;;14.90;99.90;;;;;;4984443;28;20091;-71
2022/08/07 00:08:03;;;;;;;4.68;1.30;;;14.90;99.90;;;;;;4974499;28;20692;-71
2022/08/07 00:10:29;;;;;;;3.80;1.20;;;14.90;99.90;;;;;;4977608;28;20081;-71
2022/08/07 00:12:56;;;;;;;4.93;1.88;;;14.80;99.90;;;;;;4974690;28;20407;-71
2022/08/07 00:15:24;;;;;;;4.40;1.13;;;14.80;99.90;;;;;;4978776;28;20084;-71
2022/08/07 00:17:50;;;;;;;3.80;1.02;;;14.80;99.90;;;;;;4980003;28;20116;-71
2022/08/07 00:20:15;;;;;;;3.35;1.10;;;14.80;99.90;;;;;;4979051;28;20034;-71
2022/08/07 00:22:41;;;;;;;4.20;1.20;;;14.80;99.90;;;;;;4987082;28;20034;-70
2022/08/07 00:25:07;;;;;;;2.25;1.10;;;14.80;99.90;;;;;;4980971;28;20191;-70
2022/08/07 00:27:34;;;;;;;3.30;1.35;;;14.70;99.90;;;;;;4980954;28;20703;-71
2022/08/07 00:30:01;;;;;;;7.35;1.15;;;14.70;99.90;;;;;;4980462;28;20038;-71
2022/08/07 00:32:27;;;;;;;1.40;0.93;;;14.70;99.90;;;;;;5013106;28;20053;-69
2022/08/07 00:34:52;;;;;;;3.53;1.30;;;14.70;99.90;;;;;;4987647;28;20038;-71
2022/08/07 00:37:18;;;;;;;4.30;1.00;;;14.60;99.90;;;;;;4979796;28;20034;-70
2022/08/07 00:39:44;;;;;;;4.03;1.27;;;14.70;99.90;;;;;;4979723;28;20121;-71
2022/08/07 00:42:10;;;;;;;5.70;1.10;;;14.60;99.90;;;;;;4980517;28;20395;-68
2022/08/07 00:44:36;;;;;;;2.58;1.13;;;14.60;99.90;;;;;;4977742;28;20085;-69
2022/08/07 00:47:04;;;;;;;3.53;0.95;;;14.60;99.90;;;;;;4982376;28;20115;-70
2022/08/07 00:49:30;;;;;;;4.60;1.50;;;14.60;99.90;;;;;;4979805;28;20463;-72
2022/08/07 00:51:56;;;;;;;3.55;1.35;;;14.50;99.90;;;;;;4980790;28;20042;-69
2022/08/07 00:54:22;;;;;;;2.13;0.90;;;14.60;99.90;;;;;;4977785;28;20037;-71
2022/08/07 00:56:48;;;;;;;3.85;1.73;;;14.50;99.90;;;;;;4983918;28;20042;-71
2022/08/07 00:59:14;;;;;;;2.30;1.00;;;14.50;99.90;;;;;;4976920;28;20684;-71
2022/08/07 01:01:40;;;;;;;2.50;1.05;;;14.50;99.90;;;;;;4980631;28;20049;-70
2022/08/07 01:04:06;;;;;;;1.60;0.90;;;14.50;99.90;;;;;;4974783;28;20030;-71
2022/08/07 01:06:32;;;;;;;2.85;1.20;;;14.50;99.90;;;;;;4979627;28;20041;-71
2022/08/07 01:09:00;;;;;;;2.35;1.27;;;14.50;99.90;;;;;;4976434;28;20030;-71
2022/08/07 01:11:26;;;;;;;5.63;1.30;;;14.50;99.90;;;;;;4977704;28;20031;-71
2022/08/07 01:13:51;;;;;;;2.63;1.55;;;14.40;99.90;;;;;;4977290;28;20038;-68
2022/08/07 01:16:18;;;;;;;3.03;1.30;;;14.40;99.90;;;;;;4985870;28;20038;-71
2022/08/07 01:18:44;;;;;;;4.15;1.70;;;14.40;99.90;;;;;;4987090;28;20101;-70
2022/08/07 01:21:13;;;;;;;3.42;1.77;;;14.40;99.90;;;;;;4984145;28;20057;-71
2022/08/07 01:23:41;;;;;;;3.33;1.70;;;14.40;99.90;;;;;;4980715;28;20114;-71
2022/08/07 01:26:08;;;;;;;3.05;1.83;;;14.40;99.90;;;;;;4985194;28;20042;-70
2022/08/07 01:28:34;;;;;;;3.97;1.63;;;14.40;99.90;;;;;;4977399;28;20074;-71
2022/08/07 01:31:01;;;;;;;7.50;2.00;;;14.40;99.90;;;;;;4980790;28;20113;-68
2022/08/07 01:33:27;;;;;;;2.25;1.50;;;14.30;99.90;;;;;;4980749;28;20046;-69
2022/08/07 01:35:53;;;;;;;2.92;1.85;;;14.30;99.90;;;;;;4980147;28;20041;-69
2022/08/07 01:38:19;;;;;;;4.03;1.92;;;14.30;99.90;;;;;;4978601;28;20034;-71
2022/08/07 01:40:47;;;;;;;3.08;1.98;;;14.20;99.90;;;;;;4979774;28;20406;-71
2022/08/07 01:43:13;;;;;;;3.50;1.92;;;14.20;99.90;;;;;;4982605;28;20040;-70
2022/08/07 01:45:40;;;;;;;7.38;2.20;;;14.20;99.90;;;;;;4984949;28;20403;-70
2022/08/07 01:48:05;;;;;;;4.38;2.40;;;14.20;99.90;;;;;;4979587;28;20081;-70
2022/08/07 01:50:32;;;;;;;4.88;1.98;;;14.20;99.90;;;;;;4977063;28;20313;-69
2022/08/07 01:53:00;;;;;;;5.85;1.95;;;14.10;99.90;;;;;;4979582;28;20089;-70
2022/08/07 01:55:31;;;;;;;5.18;1.98;;;14.10;99.90;;;;;;4980815;28;20035;-70
2022/08/07 01:57:59;;;;;;;4.72;1.80;;;14.10;99.90;;;;;;4980283;28;20034;-68
2022/08/07 02:00:29;;;;;;;3.35;1.83;;;14.00;99.90;;;;;;4976354;28;20119;-69
2022/08/07 02:03:00;;;;;;;4.05;2.20;;;14.00;99.90;;;;;;4978704;28;20553;-71
2022/08/07 02:05:32;;;;;;;4.03;2.38;;;14.00;99.90;;;;;;4976674;28;20031;-71
2022/08/07 02:08:02;;;;;;;7.00;1.92;;;14.00;99.90;;;;;;4980621;28;20523;-69
2022/08/07 02:10:29;;;;;;;4.65;2.10;;;14.00;99.90;;;;;;4980983;28;20128;-69
2022/08/07 02:13:01;;;;;;;3.78;2.20;;;14.00;99.90;;;;;;4975871;28;20030;-71
2022/08/07 02:15:27;;;;;;;4.03;2.08;;;14.00;99.90;;;;;;4976447;28;20039;-70
2022/08/07 02:17:54;;;;;;;6.00;2.45;;;14.00;99.90;;;;;;4978727;28;20056;-71
2022/08/07 02:20:22;;;;;;;3.67;2.13;;;13.90;99.90;;;;;;4976941;28;20041;-71
2022/08/07 02:22:49;;;;;;;3.10;1.95;;;13.90;99.90;;;;;;5008799;28;20107;-72
2022/08/07 02:25:17;;;;;;;4.68;2.08;;;13.90;99.90;;;;;;4980152;28;20044;-70
2022/08/07 02:27:44;;;;;;;5.25;2.33;;;13.90;99.90;;;;;;4979405;28;20050;-69
2022/08/07 02:30:11;;;;;;;3.83;2.03;;;13.90;99.90;;;;;;4977271;28;20038;-71
2022/08/07 02:32:37;;;;;;;3.72;1.92;;;13.90;99.90;;;;;;4976638;28;20045;-71
2022/08/07 02:35:06;;;;;;;6.85;2.55;;;13.80;99.90;;;;;;4977782;28;20030;-71
2022/08/07 02:37:35;;;;;;;3.88;2.33;;;13.80;99.90;;;;;;4974934;28;20113;-71
2022/08/07 02:40:03;;;;;;;4.38;1.85;;;13.80;99.90;;;;;;4978858;28;20080;-71
2022/08/07 02:42:31;;;;;;;4.72;2.17;;;13.80;99.90;;;;;;4978531;28;20058;-71
2022/08/07 02:44:58;;;;;;;4.93;2.30;;;13.80;99.90;;;;;;4983850;28;20038;-71
2022/08/07 02:47:24;;;;;;;4.72;2.47;;;13.80;99.90;;;;;;4975688;28;20113;-71
2022/08/07 02:49:50;;;;;;;3.35;1.83;;;13.70;99.90;;;;;;4977161;28;20045;-71
2022/08/07 02:52:22;;;;;;;6.20;2.47;;;13.70;99.90;;;;;;4977068;28;20034;-70
2022/08/07 02:54:50;;;;;;;4.90;2.17;;;13.70;99.90;;;;;;4982159;28;20038;-71
2022/08/07 02:57:20;;;;;;;5.00;2.08;;;13.70;99.90;;;;;;4985043;28;20038;-71
2022/08/07 02:59:49;;;;;;;3.38;1.80;;;13.70;99.90;;;;;;4986180;28;20055;-71
2022/08/07 03:02:15;;;;;;;4.93;2.22;;;13.70;99.90;;;;;;4976157;28;20097;-71
2022/08/07 03:04:43;;;;;;;5.43;2.08;;;13.70;99.90;;;;;;4977284;28;20105;-71
2022/08/07 03:07:10;;;;;;;4.95;1.92;;;13.70;99.90;;;;;;4976811;28;20089;-70
2022/08/07 03:09:36;;;;;;;3.03;2.08;;;13.60;99.90;;;;;;4976755;28;20117;-71
2022/08/07 03:12:04;;;;;;;6.57;2.83;;;13.60;99.90;;;;;;4977781;28;20046;-71
2022/08/07 03:14:30;;;;;;;7.10;2.35;;;13.60;99.90;;;;;;4974804;28;20038;-70
2022/08/07 03:16:56;;;;;;;4.22;2.15;;;13.60;99.90;;;;;;4978600;28;20502;-71
2022/08/07 03:19:23;;;;;;;9.13;2.30;;;13.60;99.90;;;;;;4975159;28;20035;-71
2022/08/07 03:21:51;;;;;;;7.20;2.60;;;13.60;99.90;;;;;;4976357;28;20031;-71
2022/08/07 03:24:17;;;;;;;3.88;2.22;;;13.60;99.90;;;;;;4974591;28;20446;-71
2022/08/07 03:26:44;;;;;;;8.45;2.53;;;13.50;99.90;;;;;;4983714;28;20042;-69
2022/08/07 03:29:12;;;;;;;4.57;2.60;;;13.50;99.90;;;;;;4975996;28;20384;-71
2022/08/07 03:31:39;;;;;;;5.70;2.35;;;13.50;99.90;;;;;;4974996;28;20473;-71
2022/08/07 03:34:07;;;;;;;6.97;2.35;;;13.50;99.90;;;;;;4974282;28;20042;-71
2022/08/07 03:36:34;;;;;;;5.55;2.45;;;13.50;99.90;;;;;;4976213;28;20117;-71
2022/08/07 03:39:14;;;;;;;4.68;2.50;;;13.50;99.90;;;;;;4977693;28;20125;-71
2022/08/07 03:41:40;;;;;;;4.93;2.70;;;13.50;99.90;;;;;;4976537;28;20030;-70
2022/08/07 03:44:06;;;;;;;5.45;2.55;;;13.40;99.90;;;;;;4979180;28;20509;-71
2022/08/07 03:46:33;;;;;;;7.30;2.72;;;13.40;99.90;;;;;;4974540;28;20561;-70
2022/08/07 03:48:59;;;;;;;5.25;2.60;;;13.40;99.90;;;;;;4980843;28;20034;-71
2022/08/07 03:51:26;;;;;;;7.00;2.35;;;13.40;99.90;;;;;;4984310;28;20046;-71
2022/08/07 03:53:52;;;;;;;4.72;2.47;;;13.40;99.90;;;;;;4977218;28;20085;-70
2022/08/07 03:56:20;;;;;;;4.93;3.15;;;13.40;99.90;;;;;;4980548;28;20047;-70
2022/08/07 03:58:47;;;;;;;3.20;1.92;;;13.30;99.90;;;;;;4977372;28;20038;-70
2022/08/07 04:01:14;;;;;;;5.53;2.33;;;13.30;99.90;;;;;;4973418;28;20112;-70
2022/08/07 04:03:40;;;;;;;4.15;2.22;;;13.30;99.90;;;;;;4976106;28;20280;-71
2022/08/07 04:06:09;;;;;;;5.20;2.40;;;13.30;99.90;;;;;;4974113;28;20030;-70
2022/08/07 04:08:38;;;;;;;3.85;2.40;;;13.30;99.90;;;;;;4974633;28;20046;-71
2022/08/07 04:11:04;;;;;;;3.45;2.25;;;13.30;99.90;;;;;;4975561;28;20041;-72
2022/08/07 04:13:31;;;;;;;4.35;2.15;;;13.20;99.90;;;;;;4974295;28;20044;-71
2022/08/07 04:15:57;;;;;;;2.85;1.73;;;13.20;99.90;;;;;;4976996;28;20034;-71
2022/08/07 04:18:23;;;;;;;5.25;2.08;;;13.30;99.90;;;;;;4973888;28;20672;-71
2022/08/07 04:20:49;;;;;;;5.28;2.15;;;13.20;99.90;;;;;;4977301;28;20062;-71
2022/08/07 04:23:15;;;;;;;5.72;2.80;;;13.20;99.90;;;;;;4973003;28;20038;-68
2022/08/07 04:25:41;;;;;;;6.18;2.08;;;13.30;99.90;;;;;;4982461;28;20042;-71
2022/08/07 04:28:09;;;;;;;4.35;2.33;;;13.20;99.90;;;;;;4977648;28;20046;-71
2022/08/07 04:30:35;;;;;;;3.67;2.03;;;13.20;99.90;;;;;;4983850;28;20031;-69
2022/08/07 04:33:08;;;;;;;3.22;1.95;;;13.20;99.90;;;;;;4983207;28;20102;-70
2022/08/07 04:35:36;;;;;;;5.30;2.28;;;13.20;99.90;;;;;;4977814;28;20740;-70
2022/08/07 04:38:09;;;;;;;4.60;2.35;;;13.20;99.90;;;;;;4973113;28;20035;-71
2022/08/07 04:40:39;;;;;;;5.93;2.00;;;13.10;99.90;;;;;;4976255;28;20030;-68
2022/08/07 04:43:05;;;;;;;5.00;2.33;;;13.20;99.90;;;;;;4975115;28;20062;-70
2022/08/07 04:45:52;;;;;;;3.65;1.65;;;13.10;99.90;;;;;;4976641;28;20042;-70
2022/08/07 04:48:40;;;;;;;4.25;1.95;;;13.10;99.90;;;;;;4980191;28;20100;-70
2022/08/07 04:51:40;;;;;;;4.65;2.05;;;13.10;99.90;;;;;;5011981;28;20046;-69
2022/08/07 04:54:15;;;;;;;3.47;1.88;;;13.20;99.90;;;;;;4984333;28;20653;-71
2022/08/07 04:57:01;;;;;;;4.07;2.25;;;13.20;99.90;;;;;;5012573;28;20038;-71
2022/08/07 04:59:47;;;;;;;6.28;2.13;;;13.20;99.90;;;;;;4977290;28;20038;-71
2022/08/07 05:02:26;;;;;;;3.65;1.83;;;13.20;99.90;;;;;;4977778;28;20034;-70
2022/08/07 05:05:05;;;;;;;3.65;2.08;;;13.20;99.90;;;;;;4980939;28;20136;-71
2022/08/07 05:07:36;;;;;;;4.93;2.50;;;13.20;99.90;;;;;;4978296;28;20062;-71
2022/08/07 05:10:11;;;;;;;4.50;2.50;;;13.30;99.90;;;;;;4978610;28;20053;-67
2022/08/07 05:13:05;;;;;;;3.67;2.00;;;13.30;99.90;;;;;;4977088;28;20031;-71
2022/08/07 05:15:36;;;;;;;5.38;2.20;;;13.30;99.90;;;;;;4990038;28;20117;-72
2022/08/07 05:18:15;;;;;;;9.15;2.50;;;13.40;99.90;;;;;;4976008;28;20043;-68
2022/08/07 05:20:45;;;;;;;6.72;2.65;;;13.50;99.90;;;;;;4978528;28;21640;-71
2022/08/07 05:23:16;;;;;;;6.72;2.10;;;13.50;99.90;;;;;;4976433;28;20057;-70
2022/08/07 05:25:43;;;;;;;5.60;2.15;;;13.50;99.90;;;;;;4981243;28;20037;-71
2022/08/07 05:28:10;;;;;;;5.45;2.60;;;13.60;99.90;;;;;;4976845;28;20045;-71
2022/08/07 05:30:36;;;;;;;4.80;2.05;;;13.60;99.90;;;;;;4979259;28;20041;-71
2022/08/07 05:33:03;;;;;;;4.00;2.00;;;13.60;99.90;;;;;;4975765;28;20093;-69
2022/08/07 05:35:32;;;;;;;4.03;2.00;;;13.70;99.90;;;;;;4978426;28;20046;-70
2022/08/07 05:37:59;;;;;;;3.88;2.30;;;13.70;99.90;;;;;;4979339;28;20054;-71
2022/08/07 05:40:25;;;;;;;4.03;1.95;;;13.80;99.90;;;;;;4975589;28;20066;-71
2022/08/07 05:42:51;;;;;;;3.33;2.00;;;13.80;99.90;;;;;;4979043;28;20038;-71
2022/08/07 05:45:19;;;;;;;3.92;1.95;;;13.80;99.90;;;;;;4976290;28;20093;-71
2022/08/07 05:47:45;;;;;;;4.18;1.73;;;13.90;99.90;;;;;;5017878;28;20034;-71
2022/08/07 05:50:11;;;;;;;5.38;1.50;;;14.00;99.90;;;;;;4992471;28;20038;-71
2022/08/07 05:52:37;;;;;;;3.22;1.65;;;14.10;99.90;;;;;;4989503;28;20042;-71
2022/08/07 05:55:03;;;;;;;4.50;1.80;;;14.10;99.90;;;;;;4978436;28;20192;-70
2022/08/07 05:57:29;;;;;;;3.50;1.65;;;14.20;99.90;;;;;;4986459;28;20113;-70
2022/08/07 05:59:56;;;;;;;3.08;1.35;;;14.30;99.90;;;;;;4980053;28;20040;-70
2022/08/07 06:02:26;;;;;;;3.38;1.45;;;14.40;99.90;;;;;;4978337;28;20035;-71
2022/08/07 06:04:55;;;;;;;2.10;1.27;;;14.60;99.90;;;;;;4982657;28;20022;-71
2022/08/07 06:07:21;;;;;;;5.00;1.93;;;14.70;99.90;;;;;;4991807;28;20038;-70
2022/08/07 06:09:47;;;;;;;4.47;1.50;;;14.80;99.90;;;;;;4985220;28;20373;-71
2022/08/07 06:12:14;;;;;;;4.32;1.25;;;15.10;99.90;;;;;;4981242;28;20046;-71
2022/08/07 06:14:40;;;;;;;3.42;1.10;;;15.20;99.90;;;;;;4976319;28;20045;-71
2022/08/07 06:17:07;;;;;;;1.77;1.13;;;15.40;99.90;;;;;;4976988;28;20072;-70
2022/08/07 06:19:34;;;;;;;3.40;1.00;;;15.60;99.90;;;;;;4977363;28;20042;-69
2022/08/07 06:22:00;;;;;;;2.72;0.90;;;15.80;99.90;;;;;;4977538;28;20035;-71
2022/08/07 06:24:26;;;;;;;1.45;0.90;;;16.00;99.90;;;;;;4982406;28;20066;-71
2022/08/07 06:26:52;;;;;;;1.42;0.90;;;16.20;99.90;;;;;;4988803;28;20027;-71
2022/08/07 06:29:17;;;;;;;4.20;1.20;;;16.40;99.90;;;;;;4982953;28;20034;-71
2022/08/07 06:31:43;;;;;;;2.70;0.70;;;16.60;99.90;;;;;;4987056;28;20053;-71
2022/08/07 06:34:08;;;;;;;1.35;0.85;;;16.90;99.90;;;;;;4981368;28;20038;-72
2022/08/07 06:36:34;;;;;;;1.60;0.70;;;17.20;99.90;;;;;;4977505;28;20045;-71
2022/08/07 06:38:59;;;;;;;2.13;0.90;;;17.50;99.90;;;;;;4978394;28;20046;-70
2022/08/07 06:41:33;;;;;;;3.17;0.98;;;17.90;99.90;;;;;;4985162;28;20042;-71
2022/08/07 06:44:00;;;;;;;1.55;0.70;;;18.30;99.90;;;;;;4977886;28;20035;-71
2022/08/07 06:46:26;;;;;;;1.38;0.95;;;19.00;99.90;;;;;;4977014;28;20093;-71
2022/08/07 06:48:52;;;;;;;1.83;0.70;;;19.70;99.90;;;;;;4974601;28;20054;-70
2022/08/07 06:51:22;;;;;;;3.42;0.90;;;20.40;99.90;;;;;;4977393;28;20030;-70
2022/08/07 06:53:49;;;;;;;2.22;0.57;;;21.10;99.90;;;;;;4973570;28;20134;-71
2022/08/07 06:56:16;;;;;;;0.93;0.50;;;21.90;99.90;;;;;;4976179;28;20046;-71
2022/08/07 06:58:43;;;;;;;1.23;0.43;;;22.60;98.80;;;;;;4979261;28;20040;-70
2022/08/07 07:01:10;;;;;;;3.22;0.57;;;23.10;98.20;;;;;;4974401;28;20035;-70
2022/08/07 07:03:40;;;;;;;1.50;0.50;;;23.40;97.00;;;;;;4976434;28;20113;-70
2022/08/07 07:06:07;;;;;;;1.27;0.52;;;23.90;96.40;;;;;;4974392;28;20037;-71
2022/08/07 07:08:34;;;;;;;1.13;0.50;;;24.50;94.30;;;;;;4977233;28;20141;-72
2022/08/07 07:11:02;;;;;;;2.63;0.75;;;25.00;95.00;;;;;;4976165;28;20109;-69
2022/08/07 07:13:36;;;;;;;1.98;0.98;;;25.70;93.90;;;;;;4976097;28;20027;-71
2022/08/07 07:16:15;;;;;;;2.80;1.02;;;26.50;92.20;;;;;;5006376;28;20070;-71
2022/08/07 07:18:56;;;;;;;1.65;0.93;;;27.10;91.50;;;;;;4977847;28;20034;-72
2022/08/07 07:21:26;;;;;;;1.42;0.60;;;27.70;90.30;;;;;;4978019;28;20179;-72
2022/08/07 07:23:52;;;;;;;1.00;0.90;;;28.30;87.90;;;;;;4974116;28;20410;-72
2022/08/07 07:26:21;;;;;;;2.05;0.93;;;28.20;88.20;;;;;;4977692;28;20039;-70
2022/08/07 07:28:56;;;;;;;1.67;0.82;;;28.20;87.60;;;;;;4975302;28;20092;-72
2022/08/07 07:31:27;;;;;;;1.60;0.60;;;27.80;87.20;;;;;;4980249;28;20038;-72
2022/08/07 07:33:58;;;;;;;1.40;0.70;;;27.30;86.50;;;;;;4979243;28;20034;-70
2022/08/07 07:36:26;;;;;;;2.42;1.02;;;27.00;87.20;;;;;;4996965;28;20517;-72
2022/08/07 07:38:51;;;;;;;1.83;0.82;;;26.90;86.50;;;;;;4975448;28;20038;-70
2022/08/07 07:41:20;;;;;;;2.92;0.63;;;26.40;87.30;;;;;;4981973;28;20046;-70
2022/08/07 07:43:47;;;;;;;1.00;0.50;;;25.90;88.10;;;;;;4974487;28;20045;-71
2022/08/07 07:46:14;;;;;;;1.05;0.40;;;25.20;88.40;;;;;;4975989;28;20505;-71
2022/08/07 07:48:41;;;;;;;4.35;0.73;;;24.60;89.60;;;;;;4972315;28;20031;-71
2022/08/07 07:51:08;;;;;;;1.65;0.60;;;23.90;90.40;;;;;;4974512;28;20104;-71
2022/08/07 07:53:39;;;;;;;0.68;0.38;;;23.50;91.10;;;;;;4973406;28;20057;-70
2022/08/07 07:56:06;;;;;;;1.10;0.57;;;23.00;92.00;;;;;;4977782;28;20124;-70
2022/08/07 07:58:36;;;;;;;2.83;0.60;;;22.60;92.20;;;;;;4978651;28;20046;-70
2022/08/07 08:01:03;;;;;;;0.75;0.40;;;22.30;92.90;;;;;;4976434;28;20058;-70
2022/08/07 08:03:32;;;;;;;0.93;0.30;;;22.10;92.80;;;;;;4973883;28;20038;-70
2022/08/07 08:05:57;;;;;;;1.73;0.50;;;21.90;93.20;;;;;;4972257;28;20039;-70
2022/08/07 08:08:27;;;;;;;2.15;0.93;;;21.70;94.10;;;;;;4974769;28;20716;-67
2022/08/07 08:10:54;;;;;;;1.75;0.63;;;21.70;94.30;;;;;;4973033;28;20388;-69
2022/08/07 08:13:23;;;;;;;1.77;0.50;;;21.60;94.40;;;;;;4973520;28;20031;-71
2022/08/07 08:15:49;;;;;;;1.38;0.60;;;21.40;94.90;;;;;;4975780;28;20439;-69
2022/08/07 08:18:15;;;;;;;1.75;0.43;;;21.50;94.40;;;;;;5005181;28;20137;-70
2022/08/07 08:20:42;;;;;;;2.60;0.60;;;21.50;94.50;;;;;;5004592;28;20577;-69
2022/08/07 08:28:44;;;;;;;1.13;0.45;;;21.60;94.40;;;;;;4976251;28;20073;-70
2022/08/07 08:31:13;;;;;;;5.68;0.50;;;21.60;93.80;;;;;;4973108;28;20058;-70
2022/08/07 08:33:41;;;;;;;1.13;0.57;;;21.70;94.10;;;;;;4975931;28;20037;-67
2022/08/07 08:36:09;;;;;;;2.25;0.40;;;21.70;94.00;;;;;;4984636;28;20046;-70
2022/08/07 08:38:38;;;;;;;1.88;0.47;;;21.60;94.50;;;;;;4987186;28;20034;-69
2022/08/07 08:41:17;;;;;;;1.05;0.50;;;21.70;94.50;;;;;;4987055;28;20041;-69
2022/08/07 08:44:14;;;;;;;1.38;0.68;;;21.70;94.40;;;;;;4987206;28;20066;-70
2022/08/07 08:46:53;;;;;;;1.85;0.90;;;21.70;94.70;;;;;;4985424;28;20045;-69
2022/08/07 08:49:40;;;;;;;2.17;1.00;;;21.70;94.60;;;;;;4964521;28;20054;-70
2022/08/07 08:52:27;;;;;;;2.03;0.60;;;21.70;94.20;;;;;;4967248;28;20110;-69
2022/08/07 08:55:01;;;;;;;2.08;0.85;;;21.70;94.10;;;;;;4996918;28;20035;-69
2022/08/07 08:57:45;;;;;;;2.97;0.70;;;21.80;93.50;;;;;;4966793;28;20037;-70
2022/08/07 09:00:12;;;;;;;1.17;0.50;;;21.70;93.00;;;;;;4965253;28;20039;-68
2022/08/07 09:02:38;;;;;;;0.50;0.35;;;21.90;92.70;;;;;;4990304;28;20035;-70
2022/08/07 09:05:35;;;;;;;2.30;0.57;;;21.90;92.60;;;;;;4992719;28;20423;-69
2022/08/07 09:08:26;;;;;;;1.13;0.50;;;22.00;93.30;;;;;;4967093;28;20042;-69
2022/08/07 09:11:12;;;;;;;1.73;0.55;;;22.10;93.30;;;;;;4961217;28;20399;-69
2022/08/07 09:13:56;;;;;;;0.70;0.40;;;22.30;93.30;;;;;;4965356;28;20034;-70
2022/08/07 09:16:48;;;;;;;2.70;0.50;;;22.40;92.80;;;;;;4966317;28;20076;-69
2022/08/07 09:19:23;;;;;;;1.60;0.57;;;22.40;92.70;;;;;;4988241;28;20042;-70
2022/08/07 09:21:59;;;;;;;1.30;0.43;;;22.20;92.90;;;;;;4964779;28;20043;-70
2022/08/07 09:24:27;;;;;;;2.17;0.75;;;22.00;92.00;;;;;;4963918;28;20408;-69
2022/08/07 09:27:24;;;;;;;1.45;0.80;;;22.00;92.50;;;;;;4966976;28;20046;-70
2022/08/07 09:29:55;;;;;;;2.08;0.73;;;22.20;91.50;;;;;;4970719;28;20605;-69
2022/08/07 09:32:55;;;;;;;1.60;0.52;;;22.20;91.20;;;;;;4982973;28;20718;-69
2022/08/07 09:35:27;;;;;;;2.40;0.50;;;22.20;91.20;;;;;;4964994;28;20046;-70
2022/08/07 09:38:10;;;;;;;1.52;0.68;;;22.30;91.60;;;;;;4960949;28;20043;-69
2022/08/07 09:40:55;;;;;;;2.72;0.65;;;22.40;89.90;;;;;;4964728;28;20042;-70
2022/08/07 09:43:35;;;;;;;1.05;0.47;;;22.40;90.10;;;;;;4956552;28;20529;-70
2022/08/07 09:46:22;;;;;;;2.15;0.40;;;22.50;90.50;;;;;;4964433;28;20042;-69
2022/08/07 09:49:16;;;;;;;1.50;0.50;;;22.60;90.40;;;;;;4993484;28;20039;-70
2022/08/07 09:52:03;;;;;;;1.30;0.50;;;22.80;89.00;;;;;;4974007;28;20057;-70
2022/08/07 09:54:33;;;;;;;2.47;0.65;;;22.70;88.20;;;;;;4989084;28;20041;-69
2022/08/07 09:57:01;;;;;;;2.28;0.77;;;22.70;90.00;;;;;;4989989;28;20165;-71
2022/08/07 09:59:45;;;;;;;1.17;0.52;;;22.70;90.40;;;;;;4977784;28;20483;-70
2022/08/07 10:02:19;;;;;;;0.95;0.43;;;22.70;90.10;;;;;;4978294;28;20045;-70
2022/08/07 10:05:10;;;;;;;3.58;0.30;;;22.80;89.10;;;;;;4977227;28;20408;-70
2022/08/07 10:08:15;;;;;;;2.88;0.52;;;22.90;88.60;;;;;;4979436;28;20107;-71
2022/08/07 10:10:46;;;;;;;1.55;0.85;;;23.00;88.30;;;;;;4978615;28;20101;-69
2022/08/07 10:13:38;;;;;;;1.30;0.47;;;23.00;88.70;;;;;;4975945;28;20149;-70
2022/08/07 10:16:15;;;;;;;0.85;0.40;;;23.10;89.40;;;;;;4977199;28;20537;-72
2022/08/07 10:19:09;;;;;;;3.63;0.57;;;23.10;87.80;;;;;;4980514;28;20046;-70
2022/08/07 10:21:43;;;;;;;0.88;0.68;;;23.10;89.20;;;;;;4979506;28;20077;-71
2022/08/07 10:24:54;;;;;;;1.08;0.40;;;23.20;87.20;;;;;;4973639;28;20034;-71
2022/08/07 10:27:40;;;;;;;0.90;0.50;;;23.30;88.70;;;;;;4977330;28;20027;-71
2022/08/07 10:30:10;;;;;;;0.90;0.57;;;23.40;89.10;;;;;;4973789;28;20050;-70
2022/08/07 10:33:21;;;;;;;1.20;0.55;;;23.40;87.40;;;;;;4975028;28;20527;-71
2022/08/07 10:35:55;;;;;;;0.95;0.70;;;23.30;88.20;;;;;;4978024;28;20125;-69
2022/08/07 10:38:24;;;;;;;1.35;0.50;;;23.30;88.70;;;;;;4976890;28;20045;-71
2022/08/07 10:41:04;;;;;;;1.55;0.77;;;23.40;87.70;;;;;;5007579;28;20039;-70
2022/08/07 10:43:41;;;;;;;0.70;0.40;;;23.50;88.00;;;;;;4976864;28;20561;-71
2022/08/07 10:46:14;;;;;;;0.70;0.40;;;23.50;87.20;;;;;;4983668;28;20402;-71
2022/08/07 10:48:56;;;;;;;1.08;0.70;;;23.50;87.00;;;;;;4976977;28;20499;-69
2022/08/07 10:51:41;;;;;;;3.22;1.08;;;23.50;86.70;;;;;;4973895;28;20126;-70
2022/08/07 10:54:39;;;;;;;1.50;0.55;;;23.50;85.70;;;;;;4977481;28;20030;-70
2022/08/07 10:57:33;;;;;;;0.40;0.20;;;23.50;84.90;;;;;;4988786;28;20046;-70
2022/08/07 11:00:07;;;;;;;5.57;1.17;;;23.50;84.10;;;;;;4978480;28;20030;-71
2022/08/07 11:02:35;;;;;;;2.10;0.30;;;23.50;82.30;;;;;;4976745;28;20041;-71
2022/08/07 11:05:20;;;;;;;1.33;0.45;;;23.60;82.40;;;;;;4973083;28;20619;-71
2022/08/07 11:08:15;;;;;;;1.63;0.40;;;23.60;82.30;;;;;;4975988;28;20038;-70
2022/08/07 11:10:50;;;;;;;1.35;0.20;;;23.60;82.10;;;;;;4977786;28;20038;-71
2022/08/07 11:13:24;;;;;;;0.98;0.20;;;23.70;79.60;;;;;;4975192;28;20747;-70
2022/08/07 11:15:53;;;;;;;1.50;0.30;;;23.70;76.40;;;;;;4975250;28;20553;-70
2022/08/07 11:18:47;;;;;;;0.68;0.20;;;23.70;76.20;;;;;;4974780;28;20035;-70
2022/08/07 11:21:32;;;;;;;1.08;0.60;;;23.70;78.20;;;;;;4977806;28;20881;-70
2022/08/07 11:24:20;;;;;;;2.15;0.85;;;23.70;81.70;;;;;;4995976;28;20511;-69
2022/08/07 11:27:14;;;;;;;0.70;0.45;;;23.70;83.30;;;;;;4982646;28;20796;-71
2022/08/07 11:30:06;;;;;;;3.13;0.80;;;23.80;84.00;;;;;;4977667;28;20089;-71
2022/08/07 11:32:49;;;;;;;1.50;0.80;;;23.90;84.30;;;;;;4977328;28;20034;-71
2022/08/07 11:35:21;;;;;;;4.68;1.08;;;24.00;83.60;;;;;;4975586;28;20057;-71
2022/08/07 11:38:13;;;;;;;1.70;0.68;;;24.00;83.30;;;;;;4975697;28;20129;-71
2022/08/07 11:40:44;;;;;;;2.67;0.85;;;24.00;81.20;;;;;;4978514;28;20037;-71
2022/08/07 11:43:30;;;;;;;3.00;0.77;;;24.00;83.40;;;;;;4975030;28;20057;-69
2022/08/07 11:46:15;;;;;;;2.03;0.85;;;24.10;82.60;;;;;;4983195;28;20066;-70
2022/08/07 11:48:47;;;;;;;2.30;0.88;;;24.00;82.10;;;;;;4976827;28;20050;-71
2022/08/07 11:51:33;;;;;;;1.50;0.57;;;24.00;82.20;;;;;;5017941;28;20050;-68
2022/08/07 11:54:28;;;;;;;4.20;0.90;;;23.90;81.80;;;;;;4981264;28;20034;-69
2022/08/07 11:57:12;;;;;;;1.13;0.47;;;23.80;79.30;;;;;;5005123;28;20043;-69
2022/08/07 12:00:10;;;;;;;2.05;0.88;;;23.80;80.30;;;;;;4978744;28;20038;-70
2022/08/07 12:02:54;;;;;;;0.98;0.50;;;23.90;80.30;;;;;;5004999;28;20088;-70
2022/08/07 12:05:39;;;;;;;1.55;0.68;;;23.90;81.40;;;;;;4973881;28;20035;-67
2022/08/07 12:08:41;;;;;;;1.88;0.98;;;23.90;81.50;;;;;;4979892;28;20054;-70
2022/08/07 12:11:13;;;;;;;5.57;1.00;;;23.80;80.20;;;;;;4980247;28;20636;-69
2022/08/07 12:13:45;;;;;;;1.25;0.73;;;23.70;81.70;;;;;;4975314;28;20091;-70
2022/08/07 12:16:15;;;;;;;1.35;0.70;;;23.70;79.50;;;;;;4974724;28;20038;-70
2022/08/07 12:19:05;;;;;;;1.98;1.10;;;23.60;80.60;;;;;;4976079;28;20042;-69
2022/08/07 12:21:59;;;;;;;2.00;0.93;;;23.70;79.90;;;;;;4989916;28;20038;-70
2022/08/07 12:24:40;;;;;;;1.58;1.00;;;23.70;80.10;;;;;;4982368;28;20121;-69
2022/08/07 12:27:11;;;;;;;2.95;1.00;;;23.70;80.50;;;;;;4981007;28;20034;-68
2022/08/07 12:29:54;;;;;;;1.38;0.70;;;23.70;81.60;;;;;;4974072;28;20027;-69
2022/08/07 12:32:28;;;;;;;1.73;0.70;;;23.80;81.20;;;;;;4973103;28;20043;-69
2022/08/07 12:34:56;;;;;;;1.20;0.75;;;23.90;80.90;;;;;;4977938;28;20035;-70
2022/08/07 12:37:25;;;;;;;3.63;0.80;;;23.80;80.70;;;;;;4975319;28;20113;-70
2022/08/07 12:39:52;;;;;;;1.55;1.05;;;23.70;79.60;;;;;;4977266;28;20046;-69
2022/08/07 12:42:24;;;;;;;1.90;0.88;;;23.60;79.30;;;;;;4973266;28;20158;-69
2022/08/07 12:44:51;;;;;;;2.70;0.50;;;23.60;79.80;;;;;;4975748;28;20034;-70
2022/08/07 12:47:27;;;;;;;4.35;0.50;;;23.60;80.00;;;;;;4972487;28;20045;-69
2022/08/07 12:50:14;;;;;;;1.98;0.70;;;23.60;79.20;;;;;;4975612;28;20031;-69
2022/08/07 12:53:06;;;;;;;1.15;0.73;;;23.60;77.50;;;;;;4983371;28;20121;-68
2022/08/07 12:55:39;;;;;;;3.53;1.20;;;23.60;80.30;;;;;;4975730;28;20069;-69
2022/08/07 12:58:08;;;;;;;2.25;0.85;;;23.80;80.20;;;;;;4980631;28;20042;-70
2022/08/07 13:00:58;;;;;;;2.13;0.98;;;23.70;79.40;;;;;;5006340;28;20038;-69
2022/08/07 13:03:43;;;;;;;2.45;1.10;;;23.70;80.30;;;;;;4976067;28;20042;-69
2022/08/07 13:06:46;;;;;;;2.72;1.13;;;23.60;79.00;;;;;;4973829;28;20038;-69
2022/08/07 13:09:21;;;;;;;1.88;0.73;;;23.60;79.40;;;;;;4977232;28;20129;-69
2022/08/07 13:11:56;;;;;;;2.00;0.80;;;23.80;78.60;;;;;;4979974;28;20094;-70
2022/08/07 13:14:47;;;;;;;2.00;0.57;;;23.80;76.80;;;;;;5003067;28;20129;-68
2022/08/07 13:17:22;;;;;;;5.85;0.75;;;23.80;77.60;;;;;;4997555;28;20054;-69
2022/08/07 13:20:07;;;;;;;2.17;0.80;;;23.80;78.80;;;;;;4974190;28;20039;-70
2022/08/07 13:22:38;;;;;;;5.78;1.60;;;23.90;79.60;;;;;;4974290;28;20065;-69